| time (UTC) | temp C | wind direction | speed KPH | gust KPH | rain 1hr cm | rain 24hr cm | rain mn cm | humidity % | barometer mb |
| 20260906214515 | 31 | 130 | 1.6 | 11.3 | 0.00 | 0.00 | 0.00 | 34 | 999.6 |
| 20260906213012 | 30 | 232 | 1.6 | 9.7 | 0.00 | 0.00 | 0.00 | 34 | 999.8 |
| 20260906211511 | 31 | 214 | 1.6 | 6.4 | 0.00 | 0.00 | 0.00 | 34 | 1000.0 |
| 20260906210008 | 30 | 155 | 6.4 | 14.5 | 0.00 | 0.00 | 0.00 | 35 | 1000.0 |
| 20260906204508 | 31 | 194 | 1.6 | 8.0 | 0.00 | 0.00 | 0.00 | 35 | 1000.3 |
| 20260906203005 | 30 | 189 | 3.2 | 9.7 | 0.00 | 0.00 | 0.00 | 37 | 1000.6 |
| 20260906201504 | 31 | 130 | 3.2 | 8.0 | 0.00 | 0.00 | 0.00 | 35 | 1000.6 |
| 20260906200010 | 31 | 153 | 0.0 | 8.0 | 0.00 | 0.00 | 0.00 | 35 | 1000.7 |
| 20260906194502 | 31 | 213 | 3.2 | 16.1 | 0.00 | 0.00 | 0.00 | 34 | 1000.8 |
| 20260906193001 | 31 | 207 | 1.6 | 11.3 | 0.00 | 0.00 | 0.00 | 34 | 1001.1 |
| 20260906191602 | 30 | 159 | 1.6 | 6.4 | 0.00 | 0.00 | 0.00 | 34 | 1001.3 |
| 20260906190055 | 30 | 240 | 1.6 | 8.0 | 0.00 | 0.00 | 0.00 | 35 | 1001.4 |
| 20260906184606 | 30 | 133 | 1.6 | 9.7 | 0.00 | 0.00 | 0.00 | 37 | 1001.7 |
| 20260906183100 | 29 | 212 | 1.6 | 8.0 | 0.00 | 0.00 | 0.00 | 37 | 1002.2 |
| 20260906181547 | 29 | 211 | 0.0 | 11.3 | 0.00 | 0.00 | 0.00 | 38 | 1002.6 |
| 20260906180044 | 28 | 153 | 1.6 | 11.3 | 0.00 | 0.00 | 0.00 | 38 | 1002.9 |
| 20260906174542 | 28 | 194 | 0.0 | 9.7 | 0.00 | 0.00 | 0.00 | 39 | 1003.1 |
| 20260906173039 | 27 | 149 | 3.2 | 11.3 | 0.00 | 0.00 | 0.00 | 37 | 1003.3 |
| 20260906171537 | 27 | 139 | 3.2 | 11.3 | 0.00 | 0.00 | 0.00 | 38 | 1003.5 |
| 20260906170044 | 27 | 156 | 0.0 | 4.8 | 0.00 | 0.00 | 0.00 | 37 | 1003.7 |
| 20260906164541 | 26 | 339 | 0.0 | 6.4 | 0.00 | 0.00 | 0.00 | 39 | 1003.7 |
| 20260906163037 | 25 | 139 | 1.6 | 9.7 | 0.00 | 0.00 | 0.00 | 40 | 1003.9 |
| 20260906161525 | 25 | 138 | 0.0 | 4.8 | 0.00 | 0.00 | 0.00 | 42 | 1003.9 |
| 20260906160033 | 24 | 280 | 0.0 | 3.2 | 0.00 | 0.00 | 0.00 | 44 | 1003.9 |
| 20260906154520 | 23 | 326 | 0.0 | 3.2 | 0.00 | 0.00 | 0.00 | 45 | 1003.9 |
| 20260906153014 | 22 | 247 | 0.0 | 1.6 | 0.00 | 0.00 | 0.00 | 48 | 1003.9 |
| 20260906151509 | 22 | 253 | 0.0 | 1.6 | 0.00 | 0.00 | 0.00 | 52 | 1004.1 |
| 20260906150019 | 21 | 257 | 0.0 | 1.6 | 0.00 | 0.00 | 0.00 | 54 | 1004.0 |
| 20260906144503 | 20 | 255 | 0.0 | 3.2 | 0.00 | 0.00 | 0.00 | 56 | 1004.1 |
| 20260906143102 | 19 | 244 | 0.0 | 1.6 | 0.00 | 0.00 | 0.00 | 59 | 1004.0 |
| 20260906141613 | 18 | 252 | 0.0 | 1.6 | 0.00 | 0.00 | 0.00 | 59 | 1004.0 |
| 20260906140107 | 18 | 242 | 0.0 | 1.6 | 0.00 | 0.00 | 0.00 | 58 | 1004.1 |
| 20260906134600 | 18 | 242 | 0.0 | 1.6 | 0.00 | 0.00 | 0.00 | 56 | 1003.9 |
| 20260906133054 | 18 | 223 | 0.0 | 1.6 | 0.00 | 0.00 | 0.00 | 57 | 1003.9 |
| 20260906131551 | 17 | 222 | 0.0 | 3.2 | 0.00 | 0.00 | 0.00 | 58 | 1003.7 |
| 20260906130052 | 16 | 254 | 0.0 | 3.2 | 0.00 | 0.00 | 0.00 | 61 | 1003.7 |
| 20260906124551 | 16 | 255 | 0.0 | 0.0 | 0.00 | 0.00 | 0.00 | 63 | 1003.7 |
| 20260906123050 | 15 | 243 | 0.0 | 0.0 | 0.00 | 0.00 | 0.00 | 66 | 1003.7 |
| 20260906121549 | 16 | 243 | 0.0 | 0.0 | 0.00 | 0.00 | 0.00 | 62 | 1003.6 |
| 20260906120050 | 16 | 243 | 0.0 | 0.0 | 0.00 | 0.00 | 0.00 | 61 | 1003.4 |
| 20260906114550 | 16 | 243 | 0.0 | 0.0 | 0.00 | 0.00 | 0.00 | 61 | 1003.3 |
| 20260906113046 | 16 | 236 | 0.0 | 0.0 | 0.00 | 0.00 | 0.00 | 63 | 1003.3 |
| 20260906111548 | 15 | 228 | 0.0 | 0.0 | 0.00 | 0.00 | 0.00 | 66 | 1003.2 |
| 20260906110045 | 14 | 205 | 0.0 | 0.0 | 0.00 | 0.00 | 0.00 | 70 | 1003.1 |
| 20260906104545 | 15 | 204 | 0.0 | 0.0 | 0.00 | 0.00 | 0.00 | 70 | 1003.2 |
| 20260906103039 | 15 | 207 | 0.0 | 0.0 | 0.00 | 0.00 | 0.00 | 71 | 1003.2 |
| 20260906101537 | 15 | 207 | 0.0 | 0.0 | 0.00 | 0.00 | 0.00 | 70 | 1003.3 |
| 20260906100034 | 16 | 207 | 0.0 | 0.0 | 0.00 | 0.00 | 0.00 | 69 | 1003.5 |
| 20260906094557 | 16 | 216 | 0.0 | 0.0 | 0.00 | 0.00 | 0.00 | 70 | 1003.6 |
| 20260906093037 | 16 | 216 | 0.0 | 0.0 | 0.00 | 0.00 | 0.00 | 72 | 1003.4 |
| 20260906091540 | 17 | 228 | 0.0 | 0.0 | 0.00 | 0.00 | 0.00 | 70 | 1003.3 |
| 20260906090032 | 17 | 227 | 0.0 | 0.0 | 0.00 | 0.00 | 0.00 | 69 | 1003.3 |
| 20260906084536 | 17 | 244 | 0.0 | 0.0 | 0.00 | 0.00 | 0.00 | 70 | 1003.2 |
| 20260906083035 | 17 | 249 | 0.0 | 0.0 | 0.00 | 0.00 | 0.00 | 70 | 1003.4 |
| 20260906081543 | 17 | 240 | 0.0 | 0.0 | 0.00 | 0.00 | 0.00 | 73 | 1003.4 |
| 20260906080029 | 17 | 255 | 0.0 | 0.0 | 0.00 | 0.00 | 0.00 | 74 | 1003.4 |
| 20260906074532 | 16 | 233 | 0.0 | 0.0 | 0.00 | 0.00 | 0.00 | 75 | 1003.6 |
| 20260906073028 | 17 | 233 | 0.0 | 0.0 | 0.00 | 0.00 | 0.00 | 74 | 1003.6 |
| 20260906071527 | 17 | 233 | 0.0 | 0.0 | 0.00 | 0.00 | 0.00 | 73 | 1003.6 |
| 20260906070027 | 17 | 233 | 0.0 | 0.0 | 0.00 | 0.00 | 0.00 | 71 | 1003.8 |
| 20260906064525 | 17 | 234 | 0.0 | 1.6 | 0.00 | 0.00 | 0.00 | 72 | 1003.9 |
| 20260906063028 | 17 | 238 | 0.0 | 1.6 | 0.00 | 0.00 | 0.00 | 76 | 1003.8 |
| 20260906061531 | 16 | 190 | 0.0 | 0.0 | 0.00 | 0.00 | 0.00 | 77 | 1003.7 |
| 20260906060015 | 16 | 190 | 0.0 | 0.0 | 0.00 | 0.00 | 0.00 | 76 | 1003.4 |
| 20260906054516 | 16 | 190 | 0.0 | 0.0 | 0.00 | 0.00 | 0.00 | 74 | 1003.1 |
| 20260906053017 | 17 | 190 | 0.0 | 0.0 | 0.00 | 0.00 | 0.00 | 73 | 1003.0 |
| 20260906051514 | 17 | 190 | 0.0 | 0.0 | 0.00 | 0.00 | 0.00 | 72 | 1002.9 |
| 20260906050015 | 18 | 190 | 0.0 | 0.0 | 0.00 | 0.00 | 0.00 | 71 | 1002.9 |
| 20260906044513 | 18 | 190 | 0.0 | 0.0 | 0.00 | 0.00 | 0.00 | 70 | 1003.0 |
| 20260906043013 | 18 | 188 | 0.0 | 0.0 | 0.00 | 0.00 | 0.00 | 69 | 1003.0 |
| 20260906041512 | 19 | 198 | 0.0 | 0.0 | 0.00 | 0.00 | 0.00 | 68 | 1003.0 |
| 20260906040011 | 19 | 188 | 0.0 | 0.0 | 0.00 | 0.00 | 0.00 | 67 | 1003.0 |
| 20260906034512 | 20 | 188 | 0.0 | 0.0 | 0.00 | 0.00 | 0.00 | 65 | 1003.2 |
| 20260906033011 | 21 | 188 | 0.0 | 0.0 | 0.00 | 0.00 | 0.00 | 64 | 1003.2 |
| 20260906031509 | 21 | 188 | 0.0 | 0.0 | 0.00 | 0.00 | 0.00 | 63 | 1003.1 |
| 20260906030007 | 21 | 201 | 0.0 | 0.0 | 0.00 | 0.00 | 0.00 | 62 | 1002.8 |
| 20260906024507 | 22 | 206 | 0.0 | 3.2 | 0.00 | 0.00 | 0.00 | 61 | 1002.6 |
| 20260906023008 | 21 | 186 | 0.0 | 6.4 | 0.00 | 0.00 | 0.00 | 60 | 1002.5 |
| 20260906021507 | 21 | 200 | 0.0 | 3.2 | 0.00 | 0.00 | 0.00 | 44 | 1002.2 |
| 20260906020004 | 21 | 221 | 0.0 | 0.0 | 0.00 | 0.00 | 0.00 | 44 | 1001.5 |
| 20260906014505 | 22 | 221 | 0.0 | 1.6 | 0.00 | 0.00 | 0.00 | 42 | 1001.3 |
| 20260906013004 | 23 | 233 | 0.0 | 1.6 | 0.00 | 0.00 | 0.00 | 41 | 1001.2 |
| 20260906011508 | 23 | 233 | 0.0 | 0.0 | 0.00 | 0.00 | 0.00 | 40 | 1001.2 |
| 20260906010002 | 25 | 216 | 0.0 | 8.0 | 0.00 | 0.00 | 0.00 | 39 | 1001.3 |
| 20260906004502 | 27 | 273 | 1.6 | 4.8 | 0.00 | 0.00 | 0.00 | 35 | 1001.5 |
| 20260906003002 | 26 | 273 | 0.0 | 6.4 | 0.00 | 0.00 | 0.00 | 35 | 1001.6 |
| 20260906001612 | 26 | 244 | 1.6 | 4.8 | 0.00 | 0.00 | 0.00 | 34 | 1001.5 |
| 20260906000100 | 27 | 250 | 0.0 | 3.2 | 0.00 | 0.00 | 0.00 | 34 | 1001.4 |
| 20260905234601 | 28 | 215 | 0.0 | 3.2 | 0.00 | 0.00 | 0.00 | 33 | 1001.2 |
| 20260905233110 | 28 | 245 | 0.0 | 1.6 | 0.00 | 0.00 | 0.00 | 33 | 1001.2 |
| 20260905231559 | 28 | 234 | 0.0 | 3.2 | 0.00 | 0.00 | 0.00 | 32 | 1000.9 |
| 20260905230057 | 27 | 249 | 0.0 | 0.0 | 0.00 | 0.00 | 0.00 | 35 | 1000.9 |
| 20260905224605 | 27 | 232 | 0.0 | 1.6 | 0.00 | 0.00 | 0.00 | 35 | 1001.0 |
| 20260905223056 | 26 | 74 | 0.0 | 3.2 | 0.00 | 0.00 | 0.00 | 36 | 1001.1 |
| 20260905221553 | 25 | 260 | 0.0 | 3.2 | 0.00 | 0.00 | 0.00 | 36 | 1001.4 |
| 20260905220101 | 26 | 207 | 0.0 | 1.6 | 0.00 | 0.00 | 0.00 | 36 | 1001.6 |